createdAt,value
2018-01-29T05:00:30.732Z,9.91
2018-01-29T05:00:56.264Z,10.02
2018-01-29T05:01:21.766Z,10.05
2018-01-29T05:01:47.313Z,10.05
2018-01-29T05:02:12.774Z,10.04
2018-01-29T05:02:38.259Z,10.1
2018-01-29T05:03:03.788Z,10.13
2018-01-29T05:03:29.370Z,9.99
2018-01-29T05:03:54.847Z,10.12
2018-01-29T05:04:20.358Z,9.98
2018-01-29T05:04:45.846Z,10.04
2018-01-29T05:05:11.363Z,10.02
2018-01-29T05:05:36.837Z,10.04
2018-01-29T05:06:02.342Z,9.99
2018-01-29T05:06:27.839Z,10.09
2018-01-29T05:06:53.332Z,10.01
2018-01-29T05:07:18.852Z,10.02
2018-01-29T05:07:44.352Z,10.04
2018-01-29T05:08:09.844Z,10.07
2018-01-29T05:08:35.326Z,10.09
2018-01-29T05:09:00.820Z,10.12
2018-01-29T05:09:26.314Z,10.09
2018-01-29T05:09:51.816Z,10.12
2018-01-29T05:10:17.310Z,10.07
2018-01-29T05:10:42.791Z,10.07
2018-01-29T05:11:08.309Z,10.05
2018-01-29T05:11:33.776Z,10.12
2018-01-29T05:11:59.265Z,10.05
2018-01-29T05:12:24.777Z,10.13
2018-01-29T05:12:50.248Z,10.12
2018-01-29T05:13:15.726Z,10.02
2018-01-29T05:13:41.247Z,10.04
2018-01-29T05:14:06.741Z,10.02
2018-01-29T05:14:32.245Z,10.07
2018-01-29T05:14:57.751Z,10.07
2018-01-29T05:15:23.244Z,10.05
2018-01-29T05:15:48.753Z,10.04
2018-01-29T05:16:42.168Z,10.05
2018-01-29T05:17:07.684Z,10.07
2018-01-29T05:17:33.154Z,10.09
2018-01-29T05:17:58.676Z,10.07
2018-01-29T05:18:24.189Z,10.09
2018-01-29T05:18:49.702Z,10.09
2018-01-29T05:19:15.213Z,10.05
2018-01-29T05:19:40.677Z,10.02
2018-01-29T05:20:06.172Z,10.09
2018-01-29T05:20:31.677Z,10.09
2018-01-29T05:20:57.266Z,10.07
2018-01-29T05:21:22.755Z,10.15
2018-01-29T05:21:48.259Z,10.09
2018-01-29T05:22:13.824Z,10.05
2018-01-29T05:22:39.370Z,10.07
2018-01-29T05:23:04.882Z,10.1
2018-01-29T05:23:30.348Z,10.09
2018-01-29T05:23:55.854Z,10.05
2018-01-29T05:24:21.471Z,10.05
2018-01-29T05:24:46.970Z,10.09
2018-01-29T05:25:12.428Z,10.05
2018-01-29T05:25:37.923Z,10.09
2018-01-29T05:26:03.417Z,10.07
2018-01-29T05:26:52.473Z,10.07
2018-01-29T05:27:17.946Z,10.02
2018-01-29T05:27:43.417Z,10.07
2018-01-29T05:28:08.884Z,10.07
2018-01-29T05:28:34.358Z,10.05
2018-01-29T05:28:59.804Z,10.12
2018-01-29T05:29:25.281Z,10.05
2018-01-29T05:29:50.752Z,10.04
2018-01-29T05:30:16.242Z,10.05
2018-01-29T05:30:41.725Z,10.04
2018-01-29T05:31:07.194Z,10.04
2018-01-29T05:31:32.698Z,10.09
2018-01-29T05:31:58.203Z,10.07
2018-01-29T05:32:23.680Z,10.09
2018-01-29T05:32:49.130Z,10.09
2018-01-29T05:33:14.583Z,10.04
2018-01-29T05:33:40.056Z,9.99
2018-01-29T05:34:05.510Z,10.04
2018-01-29T05:34:30.988Z,10.12
2018-01-29T05:34:56.445Z,10.12
2018-01-29T05:35:21.935Z,10.04
2018-01-29T05:35:47.383Z,10.09
2018-01-29T05:36:12.851Z,10.07
2018-01-29T05:36:38.439Z,10.05
2018-01-29T05:37:03.914Z,10.04
2018-01-29T05:37:29.381Z,10.05
2018-01-29T05:38:38.113Z,10.07
2018-01-29T05:39:04.347Z,10.04
2018-01-29T05:39:29.131Z,10.09
2018-01-29T05:39:54.617Z,10.07
2018-01-29T05:40:20.123Z,10.04
2018-01-29T05:40:45.664Z,10.07
2018-01-29T05:41:11.201Z,10.13
2018-01-29T05:42:14.766Z,10.04
2018-01-29T05:42:40.261Z,10.09
2018-01-29T05:43:05.738Z,10.12
2018-01-29T05:43:31.252Z,10.04
2018-01-29T05:43:56.763Z,10.09
2018-01-29T05:44:22.311Z,10.05
2018-01-29T05:44:47.803Z,10.01
2018-01-29T05:45:13.302Z,10.01
2018-01-29T05:45:38.815Z,10.01
2018-01-29T05:46:04.338Z,10.05
2018-01-29T05:46:29.924Z,10.15
2018-01-29T05:46:55.504Z,10.1
2018-01-29T05:47:21.030Z,10.07
2018-01-29T05:47:46.504Z,10.07
2018-01-29T05:48:12.077Z,10.05
2018-01-29T05:48:37.583Z,10.05
2018-01-29T05:49:03.042Z,10.09
2018-01-29T05:49:28.523Z,10.07
2018-01-29T05:49:54.030Z,10.07
2018-01-29T05:50:19.760Z,10.05
2018-01-29T05:50:45.215Z,10.2
2018-01-29T05:51:10.714Z,10.22
2018-01-29T05:51:36.211Z,10.07
2018-01-29T05:52:01.717Z,10.15
2018-01-29T05:52:27.177Z,10.05
2018-01-29T05:52:52.719Z,10.1
2018-01-29T05:53:18.224Z,10.09
2018-01-29T05:53:43.714Z,9.98
2018-01-29T05:54:09.197Z,10.2
2018-01-29T05:54:34.738Z,10.09
2018-01-29T05:55:00.218Z,10.1
2018-01-29T05:55:25.699Z,10.12
2018-01-29T05:55:51.210Z,10.01
2018-01-29T05:56:16.699Z,10.04
2018-01-29T05:56:42.172Z,10.07
2018-01-29T05:57:07.771Z,10.12
2018-01-29T05:57:33.248Z,10.09
2018-01-29T05:57:58.714Z,10.07
2018-01-29T05:58:24.202Z,10.1
2018-01-29T05:58:49.682Z,10.12
2018-01-29T05:59:15.213Z,10.15
2018-01-29T05:59:40.698Z,10.1
2018-01-29T06:00:06.171Z,10.12
2018-01-29T06:00:31.642Z,10.13
2018-01-29T06:00:57.140Z,10.09
2018-01-29T06:01:22.653Z,10.12
2018-01-29T06:01:48.131Z,10.09
2018-01-29T06:02:13.724Z,9.98
2018-01-29T06:02:39.253Z,10.2
2018-01-29T06:03:04.714Z,10.09
2018-01-29T06:03:30.220Z,10.13
2018-01-29T06:03:55.662Z,10.02
2018-01-29T06:04:21.158Z,10.13
2018-01-29T06:04:46.662Z,10.04
2018-01-29T06:05:12.196Z,10.1
2018-01-29T06:05:37.665Z,10.15
2018-01-29T06:06:03.144Z,10.15
2018-01-29T06:06:28.683Z,10.01
2018-01-29T06:06:54.136Z,10.12
2018-01-29T06:07:19.766Z,10.05
2018-01-29T06:07:45.219Z,10.09
2018-01-29T06:08:38.679Z,10.05
2018-01-29T06:09:04.189Z,10.15
2018-01-29T06:09:57.678Z,10.07
2018-01-29T06:10:23.150Z,10.02
2018-01-29T06:10:48.641Z,10.1
2018-01-29T06:11:14.142Z,10.05
2018-01-29T06:11:39.643Z,10.07
2018-01-29T06:12:05.128Z,10.1
2018-01-29T06:12:30.606Z,10.16
2018-01-29T06:12:56.104Z,10.16
2018-01-29T06:13:21.589Z,10.09
2018-01-29T06:13:47.092Z,10.16
2018-01-29T06:14:12.605Z,10.07
2018-01-29T06:14:38.076Z,10.1
2018-01-29T06:15:03.566Z,10.13
2018-01-29T06:15:29.043Z,10.2
2018-01-29T06:15:54.620Z,10.16
2018-01-29T06:16:20.037Z,10.07
2018-01-29T06:16:45.665Z,10.09
2018-01-29T06:17:11.192Z,10.12
2018-01-29T06:17:36.613Z,10.07
2018-01-29T06:18:02.330Z,10.19
2018-01-29T06:18:28.085Z,10.13
2018-01-29T06:18:53.557Z,10.15
2018-01-29T06:19:47.042Z,10.17
2018-01-29T06:20:12.762Z,10.22
2018-01-29T06:20:38.181Z,10.22
2018-01-29T06:21:03.681Z,10.16
2018-01-29T06:21:29.136Z,10.22
2018-01-29T06:21:54.859Z,10.12
2018-01-29T06:22:20.353Z,10.22
2018-01-29T06:22:46.240Z,10.1
2018-01-29T06:23:11.699Z,10.2
2018-01-29T06:23:37.306Z,10.16
2018-01-29T06:24:02.926Z,10.1
2018-01-29T06:24:28.326Z,10.13
2018-01-29T06:24:53.830Z,10.2
2018-01-29T06:25:19.263Z,10.19
2018-01-29T06:26:07.616Z,10.13
2018-01-29T06:26:33.064Z,10.15
2018-01-29T06:26:58.649Z,10.13
2018-01-29T06:27:24.157Z,10.13
2018-01-29T06:27:49.836Z,10.15
2018-01-29T06:28:15.338Z,10.12
2018-01-29T06:28:40.831Z,10.16
2018-01-29T06:29:06.345Z,10.12
2018-01-29T06:29:31.832Z,10.2
2018-01-29T06:29:57.359Z,10.04
2018-01-29T06:30:22.902Z,10.05
2018-01-29T06:31:16.331Z,10.13
2018-01-29T06:31:41.839Z,10.17
2018-01-29T06:32:07.544Z,10.2
2018-01-29T06:32:33.068Z,10.22
2018-01-29T06:32:58.607Z,10.1
2018-01-29T06:33:24.089Z,10.05
2018-01-29T06:33:49.584Z,10.12
2018-01-29T06:34:15.060Z,10.12
2018-01-29T06:34:40.556Z,10.15
2018-01-29T06:35:06.130Z,10.16
2018-01-29T06:35:31.574Z,10.1
2018-01-29T06:35:57.095Z,10.07
2018-01-29T06:36:22.599Z,10.1
2018-01-29T06:36:48.047Z,10.02
2018-01-29T06:37:51.654Z,10.13
2018-01-29T06:38:17.155Z,10.02
2018-01-29T06:38:42.674Z,10.12
2018-01-29T06:39:08.155Z,10.05
2018-01-29T06:39:33.698Z,10.04
2018-01-29T06:39:59.174Z,10.1
2018-01-29T06:40:24.704Z,10.13
2018-01-29T06:40:50.188Z,10.13
2018-01-29T06:41:15.680Z,10.07
2018-01-29T06:41:41.200Z,10.09
2018-01-29T06:42:06.665Z,10.1
2018-01-29T06:42:32.173Z,10.02
2018-01-29T06:42:57.693Z,10.13
2018-01-29T06:43:23.215Z,10.13
2018-01-29T06:43:48.693Z,10.16
2018-01-29T06:44:14.192Z,10.16
2018-01-29T06:44:39.799Z,10.05
2018-01-29T06:45:05.313Z,10.13
2018-01-29T06:45:30.806Z,10.07
2018-01-29T06:45:56.334Z,10.09
2018-01-29T06:46:21.824Z,10.09
2018-01-29T06:46:47.360Z,10.07
2018-01-29T06:47:56.068Z,10.13
2018-01-29T06:48:21.537Z,10.07
2018-01-29T06:48:47.143Z,10.13
2018-01-29T06:49:12.699Z,10.09
2018-01-29T06:49:38.193Z,10.12
2018-01-29T06:50:03.689Z,10.12
2018-01-29T06:50:29.162Z,10.1
2018-01-29T06:50:54.764Z,10.2
2018-01-29T06:51:20.226Z,10.12
2018-01-29T06:51:45.686Z,10.13
2018-01-29T06:52:11.201Z,10.22
2018-01-29T06:52:36.714Z,10.17
2018-01-29T06:53:02.199Z,10.19
2018-01-29T06:53:27.817Z,10.1
2018-01-29T06:53:53.212Z,10.1
2018-01-29T06:54:18.702Z,10.13
2018-01-29T06:55:26.964Z,10.17
2018-01-29T06:55:52.455Z,10.15
2018-01-29T06:56:17.947Z,10.15
2018-01-29T06:56:43.446Z,10.16
2018-01-29T06:57:08.953Z,10.12
2018-01-29T06:57:34.433Z,10.17
2018-01-29T06:57:59.937Z,10.13
2018-01-29T06:58:25.447Z,10.2
2018-01-29T06:58:50.910Z,10.12
2018-01-29T06:59:16.400Z,10.12
2018-01-29T06:59:41.925Z,10.15
2018-01-29T07:00:07.446Z,10.12
2018-01-29T07:00:32.901Z,10.12
2018-01-29T07:00:58.373Z,10.04
2018-01-29T07:01:23.896Z,10.17
2018-01-29T07:02:17.322Z,10.09
2018-01-29T07:02:42.825Z,10.22
2018-01-29T07:03:08.307Z,10.19
2018-01-29T07:03:33.797Z,10.13
2018-01-29T07:03:59.294Z,10.1
2018-01-29T07:04:24.813Z,10.2
2018-01-29T07:04:50.305Z,10.12
2018-01-29T07:05:15.806Z,10.12
2018-01-29T07:05:41.378Z,10.09
2018-01-29T07:06:06.857Z,10.07
2018-01-29T07:06:32.332Z,10.12
2018-01-29T07:06:57.849Z,10.07
2018-01-29T07:07:23.330Z,10.13
2018-01-29T07:08:26.499Z,10.04
2018-01-29T07:08:51.994Z,10.02
2018-01-29T07:09:17.483Z,10.05
2018-01-29T07:09:42.979Z,10.1
2018-01-29T07:10:08.503Z,10.02
2018-01-29T07:10:34.218Z,10.05
2018-01-29T07:10:59.702Z,10.12
2018-01-29T07:11:25.183Z,10.09
2018-01-29T07:11:50.652Z,10.12
2018-01-29T07:12:16.223Z,10.07
2018-01-29T07:12:41.723Z,10.09
2018-01-29T07:13:07.267Z,10.19
2018-01-29T07:13:32.787Z,10.09
2018-01-29T07:13:58.324Z,10.02
2018-01-29T07:14:23.777Z,10.07
2018-01-29T07:14:49.286Z,10.09
2018-01-29T07:15:14.791Z,10.02
2018-01-29T07:15:40.386Z,10.1
2018-01-29T07:16:05.966Z,10.02
2018-01-29T07:16:31.572Z,10.04
2018-01-29T07:16:57.053Z,10.13
2018-01-29T07:17:22.560Z,10.09
2018-01-29T07:18:31.285Z,10.13
2018-01-29T07:18:56.792Z,10.1
2018-01-29T07:19:22.259Z,10.13
2018-01-29T07:19:47.786Z,10.01
2018-01-29T07:20:13.240Z,10.16
2018-01-29T07:20:38.834Z,10.15
2018-01-29T07:21:04.354Z,10.13
2018-01-29T07:21:29.824Z,10.13
2018-01-29T07:21:55.289Z,10.22
2018-01-29T07:22:20.758Z,10.1
2018-01-29T07:22:46.269Z,10.1
2018-01-29T07:23:11.728Z,10.12
2018-01-29T07:23:37.230Z,10.12
2018-01-29T07:24:02.776Z,10.19
2018-01-29T07:24:28.178Z,10.1
2018-01-29T07:24:53.630Z,10.02
2018-01-29T07:26:01.828Z,10.13
2018-01-29T07:26:27.329Z,10.1
2018-01-29T07:26:52.837Z,10.09
2018-01-29T07:27:18.332Z,10.1
2018-01-29T07:27:43.826Z,10.09
2018-01-29T07:28:09.322Z,10.1
2018-01-29T07:28:34.826Z,10.12
2018-01-29T07:29:00.318Z,10.13
2018-01-29T07:29:25.781Z,10.1
2018-01-29T07:29:51.274Z,10.13
2018-01-29T07:30:16.817Z,10.19
2018-01-29T07:30:42.300Z,10.12
2018-01-29T07:31:07.776Z,10.2
2018-01-29T07:31:33.273Z,10.19
2018-01-29T07:31:58.815Z,10.1
2018-01-29T07:32:24.325Z,10.15
2018-01-29T07:32:49.826Z,10.05
2018-01-29T07:33:15.347Z,10.15
2018-01-29T07:33:40.876Z,10.12
2018-01-29T07:34:06.369Z,10.12
2018-01-29T07:34:31.840Z,10.12
2018-01-29T07:34:57.334Z,10.12
2018-01-29T07:36:06.081Z,10.19
2018-01-29T07:36:31.561Z,10.1
2018-01-29T07:36:57.043Z,10.22
2018-01-29T07:38:00.177Z,10.16
2018-01-29T07:38:25.666Z,10.19
2018-01-29T07:38:51.144Z,10.25
2018-01-29T07:39:16.649Z,10.12
2018-01-29T07:39:42.124Z,10.19
2018-01-29T07:40:07.678Z,10.12
2018-01-29T07:40:33.155Z,10.17
2018-01-29T07:40:58.689Z,10.1
2018-01-29T07:41:24.149Z,10.12
2018-01-29T07:41:49.654Z,10.17
2018-01-29T07:42:15.155Z,10.15
2018-01-29T07:42:40.642Z,10.15
2018-01-29T07:43:06.150Z,10.19
2018-01-29T07:43:31.631Z,10.22
2018-01-29T07:43:57.110Z,10.19
2018-01-29T07:44:22.651Z,10.15
2018-01-29T07:44:48.150Z,10.02
2018-01-29T07:45:13.754Z,10.2
2018-01-29T07:45:39.280Z,10.1
2018-01-29T07:46:04.765Z,10.09
2018-01-29T07:46:30.234Z,10.1
2018-01-29T07:46:55.731Z,10.12
2018-01-29T07:47:21.259Z,10.12
2018-01-29T07:47:46.831Z,10.02
2018-01-29T07:48:12.279Z,10.12
2018-01-29T07:48:37.786Z,10.02
2018-01-29T07:49:03.316Z,10.26
2018-01-29T07:49:28.797Z,10.1
2018-01-29T07:49:54.313Z,10.04
2018-01-29T07:50:19.821Z,10.04
2018-01-29T07:50:45.337Z,10.04
2018-01-29T07:51:10.793Z,10.07
2018-01-29T07:51:36.289Z,10.04
2018-01-29T07:52:01.801Z,10.1
2018-01-29T07:52:27.317Z,10.07
2018-01-29T07:52:52.760Z,10.07
2018-01-29T07:53:18.279Z,10.07
2018-01-29T07:53:43.742Z,10.05
2018-01-29T07:54:09.278Z,10.09
2018-01-29T07:54:34.801Z,10.09
2018-01-29T07:55:00.308Z,10.15
2018-01-29T07:55:25.764Z,10.05
2018-01-29T07:55:51.307Z,10.05
2018-01-29T07:56:16.799Z,10.05
2018-01-29T07:56:42.323Z,10.09
2018-01-29T07:57:07.914Z,10.15
2018-01-29T07:57:33.364Z,10.15
2018-01-29T07:57:58.840Z,10.05
2018-01-29T07:58:24.372Z,10.12
2018-01-29T07:58:49.836Z,10.01
2018-01-29T07:59:15.331Z,10.12
2018-01-29T07:59:40.830Z,10.05
2018-01-29T08:00:06.372Z,10.01
2018-01-29T08:00:31.870Z,10.02
2018-01-29T08:00:57.333Z,10.07
2018-01-29T08:01:22.810Z,10.05
2018-01-29T08:01:48.359Z,10.07
2018-01-29T08:02:13.850Z,10.1
2018-01-29T08:02:39.406Z,10.04
2018-01-29T08:03:04.917Z,10.01
2018-01-29T08:03:30.400Z,10.05
2018-01-29T08:03:55.943Z,10.09
2018-01-29T08:04:21.393Z,9.99
2018-01-29T08:04:46.914Z,10.05
2018-01-29T08:05:12.403Z,10.12
2018-01-29T08:05:37.904Z,10.07
2018-01-29T08:06:03.424Z,9.99
2018-01-29T08:06:28.935Z,10.05
2018-01-29T08:06:54.490Z,10.09
2018-01-29T08:07:19.966Z,10.05
2018-01-29T08:07:45.471Z,10.07
2018-01-29T08:08:10.953Z,10.07
2018-01-29T08:08:36.451Z,10.07
2018-01-29T08:09:01.965Z,10.09
2018-01-29T08:09:27.508Z,10.04
2018-01-29T08:10:26.046Z,10.09
2018-01-29T08:10:51.652Z,10.04
2018-01-29T08:11:42.655Z,10.1
2018-01-29T08:12:08.178Z,10.01
2018-01-29T08:12:33.672Z,10.07
2018-01-29T08:12:59.170Z,10.01
2018-01-29T08:13:24.698Z,10.07
2018-01-29T08:13:50.199Z,10.07
2018-01-29T08:14:15.790Z,10.04
2018-01-29T08:14:41.205Z,10.04
2018-01-29T08:15:06.712Z,10.01
2018-01-29T08:15:32.222Z,10.1
2018-01-29T08:15:57.707Z,9.99
2018-01-29T08:16:23.171Z,10.04
2018-01-29T08:16:48.653Z,10.04
2018-01-29T08:17:14.121Z,10.02
2018-01-29T08:17:39.630Z,10.02
2018-01-29T08:18:05.108Z,10.05
2018-01-29T08:18:30.587Z,10.05
2018-01-29T08:18:56.136Z,10.05
2018-01-29T08:19:21.639Z,10.01
2018-01-29T08:19:47.169Z,10.04
2018-01-29T08:20:12.683Z,10.04
2018-01-29T08:20:38.183Z,10.07
2018-01-29T08:21:03.698Z,10.01
2018-01-29T08:21:29.167Z,10.1
2018-01-29T08:21:54.696Z,10.01
2018-01-29T08:22:20.197Z,10.05
2018-01-29T08:22:45.709Z,10.09
2018-01-29T08:23:11.217Z,10.05
2018-01-29T08:23:36.696Z,10.1
2018-01-29T08:24:02.199Z,10.05
2018-01-29T08:24:27.693Z,10.05
2018-01-29T08:24:53.260Z,10.09
2018-01-29T08:25:18.801Z,10.05
2018-01-29T08:25:44.280Z,10.05
2018-01-29T08:26:09.758Z,10.07
2018-01-29T08:26:35.235Z,9.98
2018-01-29T08:27:00.732Z,10.04
2018-01-29T08:27:26.208Z,9.99
2018-01-29T08:27:51.763Z,10.07
2018-01-29T08:28:17.189Z,9.99
2018-01-29T08:28:42.689Z,10.04
2018-01-29T08:29:08.178Z,10.05
2018-01-29T08:29:33.632Z,10.12
2018-01-29T08:30:21.947Z,10.04
2018-01-29T08:30:47.448Z,9.99
2018-01-29T08:31:12.965Z,10.01
2018-01-29T08:31:38.458Z,10.1
2018-01-29T08:32:03.963Z,10.13
2018-01-29T08:32:29.457Z,10.07
2018-01-29T08:32:54.930Z,10.02
2018-01-29T08:33:20.490Z,10.04
2018-01-29T08:33:45.999Z,10.07
2018-01-29T08:34:11.552Z,10.09
2018-01-29T08:34:37.030Z,10.07
2018-01-29T08:35:02.542Z,10.07
2018-01-29T08:35:28.073Z,10.13
2018-01-29T08:35:53.609Z,10.1
2018-01-29T08:36:19.077Z,10.02
2018-01-29T08:36:44.607Z,10.04
2018-01-29T08:37:10.137Z,10.05
2018-01-29T08:37:35.635Z,10.05
2018-01-29T08:38:01.178Z,10.09
2018-01-29T08:38:26.647Z,10.05
2018-01-29T08:38:52.173Z,10.09
2018-01-29T08:39:17.695Z,10.01
2018-01-29T08:39:43.157Z,10.05
2018-01-29T08:40:08.663Z,10.02
2018-01-29T08:40:34.207Z,10.04
2018-01-29T08:40:59.700Z,10.09
2018-01-29T08:41:25.264Z,10.07
2018-01-29T08:41:50.750Z,10.04
2018-01-29T08:42:16.289Z,10.1
2018-01-29T08:42:41.797Z,10.01
2018-01-29T08:43:07.342Z,10.05
2018-01-29T08:43:32.845Z,10.02
2018-01-29T08:43:58.381Z,10.02
2018-01-29T08:44:23.851Z,10.05
2018-01-29T08:44:49.391Z,10.04
2018-01-29T08:45:15.008Z,10.17
2018-01-29T08:46:13.553Z,10.05
2018-01-29T08:46:39.125Z,10.04
2018-01-29T08:47:04.987Z,10.09
2018-01-29T08:47:58.364Z,10.16
2018-01-29T08:48:23.867Z,10.07
2018-01-29T08:48:49.387Z,10.1
2018-01-29T08:49:14.853Z,10.02
2018-01-29T08:49:40.359Z,10.04
2018-01-29T08:50:05.909Z,10.05
2018-01-29T08:50:31.539Z,10.01
2018-01-29T08:50:57.185Z,10.12
2018-01-29T08:51:22.699Z,10.05
2018-01-29T08:51:48.211Z,10.01
2018-01-29T08:52:51.488Z,9.98
2018-01-29T08:53:55.794Z,10.07
2018-01-29T08:54:21.283Z,10.07
2018-01-29T08:54:46.764Z,10.02
2018-01-29T08:55:55.522Z,10.07
2018-01-29T08:56:21.041Z,10.09
2018-01-29T08:56:46.539Z,10.12
2018-01-29T08:57:12.108Z,10.09
2018-01-29T08:57:37.700Z,10.07
2018-01-29T08:58:03.304Z,10.12
2018-01-29T08:58:28.944Z,10.1
2018-01-29T08:59:22.391Z,10.04
2018-01-29T08:59:47.907Z,10.09
2018-01-29T09:00:13.405Z,10.2
2018-01-29T09:00:38.926Z,10.2
2018-01-29T09:01:04.423Z,10.19
2018-01-29T09:01:29.884Z,10.23
2018-01-29T09:02:18.214Z,10.15
2018-01-29T09:02:43.715Z,10.19
2018-01-29T09:03:09.208Z,10.19
2018-01-29T09:03:34.788Z,10.15
2018-01-29T09:04:00.291Z,10.15
2018-01-29T09:04:25.783Z,10.17
2018-01-29T09:04:51.288Z,10.17
2018-01-29T09:05:16.766Z,10.19
2018-01-29T09:05:42.546Z,10.26
2018-01-29T09:06:08.038Z,10.22
2018-01-29T09:06:33.542Z,10.26
2018-01-29T09:06:59.038Z,10.13
2018-01-29T09:07:24.678Z,10.16
2018-01-29T09:07:50.152Z,10.16
2018-01-29T09:08:15.669Z,10.15
2018-01-29T09:08:41.138Z,10.23
2018-01-29T09:09:06.694Z,10.19
2018-01-29T09:09:32.197Z,10.22
2018-01-29T09:09:57.713Z,10.15
2018-01-29T09:10:23.317Z,10.19
2018-01-29T09:10:48.860Z,10.2
2018-01-29T09:11:14.447Z,10.16
2018-01-29T09:11:39.947Z,10.2
2018-01-29T09:12:05.410Z,10.2
2018-01-29T09:12:31.041Z,10.25
2018-01-29T09:12:56.566Z,10.2
2018-01-29T09:13:22.037Z,10.17
2018-01-29T09:13:47.538Z,10.22
2018-01-29T09:14:13.053Z,10.19
2018-01-29T09:14:38.572Z,10.13
2018-01-29T09:15:04.082Z,10.19
2018-01-29T09:15:29.573Z,10.15
2018-01-29T09:15:55.093Z,10.17
2018-01-29T09:16:20.568Z,10.22
2018-01-29T09:16:46.081Z,10.16
2018-01-29T09:17:44.314Z,10.16
2018-01-29T09:18:09.812Z,10.12
2018-01-29T09:18:35.279Z,10.22
2018-01-29T09:19:00.780Z,10.17
2018-01-29T09:19:26.379Z,10.17
2018-01-29T09:19:51.882Z,10.23
2018-01-29T09:20:17.361Z,10.17
2018-01-29T09:20:42.882Z,10.23
2018-01-29T09:21:08.379Z,10.2
2018-01-29T09:21:33.861Z,10.22
2018-01-29T09:21:59.358Z,10.2
2018-01-29T09:23:02.986Z,10.16
2018-01-29T09:23:28.485Z,10.19
2018-01-29T09:23:53.987Z,10.16
2018-01-29T09:24:19.480Z,10.15
2018-01-29T09:24:44.977Z,10.22
2018-01-29T09:25:10.454Z,10.15
2018-01-29T09:25:35.912Z,10.19
2018-01-29T09:26:01.445Z,10.16
2018-01-29T09:26:59.944Z,10.22
2018-01-29T09:27:25.422Z,10.19
2018-01-29T09:27:51.001Z,10.2
2018-01-29T09:28:16.491Z,10.2
2018-01-29T09:29:20.140Z,10.22
2018-01-29T09:29:45.619Z,10.23
2018-01-29T09:30:11.105Z,10.23
2018-01-29T09:30:36.587Z,10.2
2018-01-29T09:31:29.509Z,10.17
2018-01-29T09:31:55.019Z,10.22
2018-01-29T09:32:20.510Z,10.19
2018-01-29T09:32:45.979Z,10.16
2018-01-29T09:33:11.476Z,10.16
2018-01-29T09:33:36.962Z,10.17
2018-01-29T09:34:02.467Z,10.19
2018-01-29T09:34:27.985Z,10.1
2018-01-29T09:34:53.491Z,10.19
2018-01-29T09:35:18.995Z,10.19
2018-01-29T09:35:44.466Z,10.22
2018-01-29T09:36:09.962Z,10.13
2018-01-29T09:36:35.467Z,10.19
2018-01-29T09:37:00.931Z,10.17
2018-01-29T09:37:26.433Z,10.19
2018-01-29T09:37:51.955Z,10.25
2018-01-29T09:38:17.453Z,10.17
2018-01-29T09:38:42.917Z,10.19
2018-01-29T09:39:08.544Z,10.15
2018-01-29T09:39:33.945Z,10.22
2018-01-29T09:39:59.456Z,10.26
2018-01-29T09:40:24.954Z,10.19
2018-01-29T09:40:50.472Z,10.15
2018-01-29T09:41:15.981Z,10.19
2018-01-29T09:41:41.494Z,10.19
2018-01-29T09:42:07.004Z,10.19
2018-01-29T09:42:32.513Z,10.22
2018-01-29T09:43:25.965Z,10.22
2018-01-29T09:43:51.479Z,10.19
2018-01-29T09:44:16.971Z,10.19
2018-01-29T09:44:42.450Z,10.19
2018-01-29T09:45:07.970Z,10.17
2018-01-29T09:45:33.440Z,10.23
2018-01-29T09:45:58.950Z,10.15
2018-01-29T09:46:24.400Z,10.15
2018-01-29T09:47:33.169Z,10.25
2018-01-29T09:47:58.648Z,10.31
2018-01-29T09:48:24.129Z,10.19
2018-01-29T09:48:49.637Z,10.2
2018-01-29T09:49:15.143Z,10.28
2018-01-29T09:49:40.602Z,10.26
2018-01-29T09:50:06.104Z,10.28
2018-01-29T09:50:31.590Z,10.26
2018-01-29T09:50:57.063Z,10.19
2018-01-29T09:51:22.523Z,10.33
2018-01-29T09:52:26.135Z,10.28
2018-01-29T09:52:51.621Z,10.25
2018-01-29T09:53:17.115Z,10.19
2018-01-29T09:53:42.649Z,10.33
2018-01-29T09:54:08.176Z,10.25
2018-01-29T09:54:33.723Z,10.31
2018-01-29T09:54:59.196Z,10.2
2018-01-29T09:55:24.839Z,10.17
2018-01-29T09:55:50.216Z,10.2
2018-01-29T09:56:15.791Z,10.16
2018-01-29T09:56:41.309Z,10.23
2018-01-29T09:57:06.803Z,10.28
2018-01-29T09:57:32.301Z,10.23
2018-01-29T09:57:57.794Z,10.3
2018-01-29T09:58:23.348Z,10.28
2018-01-29T09:58:48.851Z,10.3
2018-01-29T09:59:14.359Z,10.22
2018-01-29T10:00:23.071Z,10.15
2018-01-29T10:00:48.595Z,10.16
2018-01-29T10:01:14.097Z,10.19
2018-01-29T10:01:39.574Z,10.15
2018-01-29T10:02:05.056Z,10.2
2018-01-29T10:02:30.591Z,10.26
2018-01-29T10:02:56.092Z,10.26
2018-01-29T10:03:21.653Z,10.16
2018-01-29T10:03:47.211Z,10.25
2018-01-29T10:04:12.661Z,10.2
2018-01-29T10:04:38.156Z,10.23
2018-01-29T10:05:03.616Z,10.28
2018-01-29T10:05:29.087Z,10.22
2018-01-29T10:05:54.569Z,10.17
2018-01-29T10:06:20.108Z,10.22
2018-01-29T10:06:45.604Z,10.31
2018-01-29T10:07:11.105Z,10.28
2018-01-29T10:07:36.598Z,10.17
2018-01-29T10:08:02.078Z,10.26
2018-01-29T10:08:27.633Z,10.22
2018-01-29T10:08:53.090Z,10.26
2018-01-29T10:09:18.590Z,10.33
2018-01-29T10:09:44.095Z,10.3
2018-01-29T10:10:09.530Z,10.2
2018-01-29T10:10:35.063Z,10.31
2018-01-29T10:11:00.562Z,10.25
2018-01-29T10:12:09.268Z,10.3
2018-01-29T10:12:34.774Z,10.3
2018-01-29T10:13:00.290Z,10.33
2018-01-29T10:13:25.795Z,10.33
2018-01-29T10:13:51.327Z,10.31
2018-01-29T10:14:16.797Z,10.33
2018-01-29T10:14:42.339Z,10.33
2018-01-29T10:15:07.883Z,10.34
2018-01-29T10:15:33.342Z,10.31
2018-01-29T10:15:58.879Z,10.28
2018-01-29T10:16:24.402Z,10.3
2018-01-29T10:16:50.075Z,10.28
2018-01-29T10:17:15.538Z,10.3
2018-01-29T10:17:41.069Z,10.26
2018-01-29T10:18:29.371Z,10.28
2018-01-29T10:18:54.871Z,10.25
2018-01-29T10:19:20.357Z,10.22
2018-01-29T10:19:45.865Z,10.22
2018-01-29T10:20:11.359Z,10.2
2018-01-29T10:20:36.856Z,10.31
2018-01-29T10:21:02.348Z,10.25
2018-01-29T10:21:55.781Z,10.31
2018-01-29T10:22:21.278Z,10.23
2018-01-29T10:22:46.763Z,10.33
2018-01-29T10:23:12.274Z,10.33
2018-01-29T10:23:37.781Z,10.22
2018-01-29T10:24:03.281Z,10.17
2018-01-29T10:24:28.802Z,10.2
2018-01-29T10:24:54.249Z,10.31
2018-01-29T10:25:19.760Z,10.17
2018-01-29T10:25:45.282Z,10.23
2018-01-29T10:26:10.757Z,10.23
2018-01-29T10:27:09.282Z,10.17
2018-01-29T10:27:34.791Z,10.26
2018-01-29T10:28:00.264Z,10.23
2018-01-29T10:28:25.749Z,10.31
2018-01-29T10:28:51.240Z,10.23
2018-01-29T10:29:16.737Z,10.13
2018-01-29T10:29:42.211Z,10.19
2018-01-29T10:30:07.720Z,10.16
2018-01-29T10:30:33.234Z,10.19
2018-01-29T10:30:58.696Z,10.22
2018-01-29T10:31:24.204Z,10.19
2018-01-29T10:31:49.711Z,10.28
2018-01-29T10:32:15.210Z,10.16
2018-01-29T10:32:40.717Z,10.2
2018-01-29T10:33:06.178Z,10.25
2018-01-29T10:33:31.676Z,10.28
2018-01-29T10:33:57.175Z,10.26
2018-01-29T10:34:22.696Z,10.33
2018-01-29T10:34:48.170Z,10.28
2018-01-29T10:35:13.637Z,10.19
2018-01-29T10:35:39.113Z,10.25
2018-01-29T10:36:04.658Z,10.23
2018-01-29T10:36:30.172Z,10.22
2018-01-29T10:36:55.669Z,10.34
2018-01-29T10:37:21.164Z,10.28
2018-01-29T10:37:46.689Z,10.19
2018-01-29T10:38:12.169Z,10.3
2018-01-29T10:38:37.671Z,10.26
2018-01-29T10:39:03.163Z,10.25
2018-01-29T10:39:28.794Z,10.3
2018-01-29T10:39:54.256Z,10.3
2018-01-29T10:40:57.873Z,10.33
2018-01-29T10:41:23.425Z,10.31
2018-01-29T10:41:48.932Z,10.33
2018-01-29T10:42:14.415Z,10.3
2018-01-29T10:42:39.882Z,10.33
2018-01-29T10:43:05.369Z,10.33
2018-01-29T10:43:30.833Z,10.26
2018-01-29T10:44:39.549Z,10.28
2018-01-29T10:45:05.107Z,10.3
2018-01-29T10:45:30.739Z,10.33
2018-01-29T10:45:56.229Z,10.35
2018-01-29T10:46:21.716Z,10.26
2018-01-29T10:46:47.250Z,10.3
2018-01-29T10:47:12.716Z,10.25
2018-01-29T10:47:38.654Z,10.31
2018-01-29T10:48:42.328Z,10.33
2018-01-29T10:49:07.837Z,10.28
2018-01-29T10:49:33.305Z,10.31
2018-01-29T10:49:58.791Z,10.37
2018-01-29T10:50:24.297Z,10.37
2018-01-29T10:50:49.792Z,10.33
2018-01-29T10:51:15.275Z,10.37
2018-01-29T10:51:40.778Z,10.4
2018-01-29T10:52:06.397Z,10.4
2018-01-29T10:52:31.789Z,10.4
2018-01-29T10:52:57.260Z,10.41
2018-01-29T10:53:22.749Z,10.33
2018-01-29T10:53:48.380Z,10.37
2018-01-29T10:54:13.873Z,10.4
2018-01-29T10:54:39.598Z,10.4
2018-01-29T10:55:05.103Z,10.4
2018-01-29T10:55:30.614Z,10.35